Time;durP1;ratioP1;P1;durP2;ratioP2;P2;SDS_P1;SDS_P2;PMS_P1;PMS_P2;Temp;Humidity;BMP_temperature;BMP_pressure;BME280_temperature;BME280_humidity;BME280_pressure;Samples;Min_cycle;Max_cycle;Signal;HPM_P1;HPM_P2
2024/03/28 00:02:23;0.00;0.00;0.62;0.00;0.00;0.62;4.67;3.73;;;23.90;24.10;;;;;;2271157;61;20405;-66
2024/03/28 00:04:49;0.00;0.00;0.62;0.00;0.00;0.62;4.20;3.80;;;23.90;24.10;;;;;;2271996;61;20876;-66
2024/03/28 00:07:15;0.00;0.00;0.62;0.00;0.00;0.62;4.60;2.93;;;23.90;24.10;;;;;;2271738;61;20378;-66
2024/03/28 00:09:43;0.00;0.00;0.62;0.00;0.00;0.62;4.93;3.93;;;23.90;24.10;;;;;;2271686;61;20369;-66
2024/03/28 00:12:09;0.00;0.00;0.62;0.00;0.00;0.62;3.40;2.93;;;23.80;24.00;;;;;;2271610;61;20936;-66
2024/03/28 00:14:35;0.00;0.00;0.62;0.00;0.00;0.62;3.97;3.53;;;23.80;24.00;;;;;;2271529;61;20347;-66
2024/03/28 00:17:02;0.00;0.00;0.62;0.00;0.00;0.62;5.00;4.50;;;23.90;24.10;;;;;;2271227;61;20935;-66
2024/03/28 00:19:28;0.00;0.00;0.62;0.00;0.00;0.62;4.30;3.70;;;23.90;24.10;;;;;;2271800;61;20351;-66
2024/03/28 00:21:54;0.00;0.00;0.62;0.00;0.00;0.62;4.03;3.63;;;23.80;24.00;;;;;;2271529;61;20404;-66
2024/03/28 00:24:20;0.00;0.00;0.62;0.00;0.00;0.62;4.87;3.77;;;23.80;24.00;;;;;;2271452;61;20362;-66
2024/03/28 00:26:48;0.00;0.00;0.62;0.00;0.00;0.62;5.03;3.60;;;23.80;24.00;;;;;;2271688;61;20382;-66
2024/03/28 00:29:14;0.00;0.00;0.62;0.00;0.00;0.62;5.73;4.77;;;23.80;24.00;;;;;;2271704;61;20385;-66
2024/03/28 00:31:40;0.00;0.00;0.62;0.00;0.00;0.62;4.70;4.20;;;23.90;24.10;;;;;;2271120;61;20352;-66
2024/03/28 00:34:06;0.00;0.00;0.62;0.00;0.00;0.62;5.30;4.77;;;23.80;24.00;;;;;;2271747;61;20438;-66
2024/03/28 00:36:33;0.00;0.00;0.62;0.00;0.00;0.62;4.40;3.80;;;23.80;24.00;;;;;;2271501;61;20375;-66
2024/03/28 00:38:59;0.00;0.00;0.62;0.00;0.00;0.62;5.50;4.10;;;23.80;24.00;;;;;;2271493;61;20374;-66
2024/03/28 00:41:25;0.00;0.00;0.62;0.00;0.00;0.62;5.20;4.00;;;23.80;24.00;;;;;;2271819;61;20348;-66
2024/03/28 00:43:53;0.00;0.00;0.62;0.00;0.00;0.62;4.70;4.03;;;23.80;24.00;;;;;;2271440;61;20661;-66
2024/03/28 00:46:20;0.00;0.00;0.62;0.00;0.00;0.62;4.10;3.70;;;23.80;24.00;;;;;;2271481;61;20478;-66
2024/03/28 00:48:46;0.00;0.00;0.62;0.00;0.00;0.62;4.23;3.80;;;23.80;24.00;;;;;;2271364;61;20865;-66
2024/03/28 00:51:12;0.00;0.00;0.62;0.00;0.00;0.62;4.67;3.80;;;23.80;24.00;;;;;;2271678;61;20417;-66
2024/03/28 00:53:39;0.00;0.00;0.62;0.00;0.00;0.62;4.23;3.40;;;23.80;24.00;;;;;;2271256;61;20363;-66
2024/03/28 00:56:05;0.00;0.00;0.62;0.00;0.00;0.62;4.97;4.27;;;23.80;24.00;;;;;;2271592;61;20901;-66
2024/03/28 00:58:31;0.00;0.00;0.62;0.00;0.00;0.62;5.10;4.27;;;23.80;24.00;;;;;;2271569;61;20408;-66
2024/03/28 01:01:03;0.00;0.00;0.62;0.00;0.00;0.62;6.10;4.80;;;23.80;24.00;;;;;;2271419;61;20442;-66
2024/03/28 01:03:29;0.00;0.00;0.62;0.00;0.00;0.62;6.60;4.50;;;23.80;24.10;;;;;;2271269;61;20771;-66
2024/03/28 01:05:59;0.00;0.00;0.62;0.00;0.00;0.62;5.07;4.50;;;23.80;24.00;;;;;;2271451;60;20367;-66
2024/03/28 01:08:25;0.00;0.00;0.62;0.00;0.00;0.62;5.07;4.07;;;23.80;24.10;;;;;;2271318;61;20376;-66
2024/03/28 01:10:52;0.00;0.00;0.62;0.00;0.00;0.62;5.47;4.50;;;23.80;24.10;;;;;;2271609;61;20438;-66
2024/03/28 01:13:18;0.00;0.00;0.62;0.00;0.00;0.62;5.90;4.43;;;23.80;24.10;;;;;;2271378;61;20354;-67
2024/03/28 01:15:44;0.00;0.00;0.62;0.00;0.00;0.62;5.03;3.93;;;23.80;24.10;;;;;;2271446;61;20433;-67
2024/03/28 01:18:12;0.00;0.00;0.62;0.00;0.00;0.62;5.00;3.97;;;23.80;24.10;;;;;;2271086;60;20397;-67
2024/03/28 01:20:38;0.00;0.00;0.62;0.00;0.00;0.62;4.93;4.50;;;23.70;24.00;;;;;;2271684;61;20442;-66
2024/03/28 01:23:04;0.00;0.00;0.62;0.00;0.00;0.62;6.97;5.37;;;23.80;24.10;;;;;;2270971;61;20363;-66
2024/03/28 01:25:30;0.00;0.00;0.62;0.00;0.00;0.62;5.10;4.60;;;23.80;24.10;;;;;;2271672;61;20354;-66
2024/03/28 01:27:56;0.00;0.00;0.62;0.00;0.00;0.62;5.70;4.80;;;23.80;24.10;;;;;;2271543;61;20371;-66
2024/03/28 01:30:23;0.00;0.00;0.62;0.00;0.00;0.62;5.60;5.00;;;23.70;24.00;;;;;;2271238;61;20496;-66
2024/03/28 01:32:49;0.00;0.00;0.62;0.00;0.00;0.62;5.20;4.23;;;23.70;24.00;;;;;;2271361;61;20388;-66
2024/03/28 01:35:17;0.00;0.00;0.62;0.00;0.00;0.62;6.30;4.90;;;23.70;24.00;;;;;;2271491;61;20398;-66
2024/03/28 01:37:43;0.00;0.00;0.62;0.00;0.00;0.62;6.70;4.80;;;23.70;24.00;;;;;;2271387;61;20397;-66
2024/03/28 01:40:10;0.00;0.00;0.62;0.00;0.00;0.62;5.73;4.53;;;23.70;24.00;;;;;;2271474;61;20344;-66
2024/03/28 01:42:36;0.00;0.00;0.62;0.00;0.00;0.62;5.20;4.70;;;23.70;24.00;;;;;;2271344;61;20355;-66
2024/03/28 01:45:03;0.00;0.00;0.62;0.00;0.00;0.62;4.43;4.00;;;23.70;24.00;;;;;;2271124;61;20366;-66
2024/03/28 01:47:29;0.00;0.00;0.62;0.00;0.00;0.62;4.90;4.33;;;23.70;24.00;;;;;;2271318;61;20379;-66
2024/03/28 01:49:57;0.00;0.00;0.62;0.00;0.00;0.62;4.77;4.27;;;23.70;24.00;;;;;;2271294;61;20954;-66
2024/03/28 01:52:25;0.00;0.00;0.62;0.00;0.00;0.62;4.80;4.30;;;23.70;24.00;;;;;;2271377;61;20408;-66
2024/03/28 01:54:51;0.00;0.00;0.62;0.00;0.00;0.62;4.50;3.90;;;23.70;24.00;;;;;;2267461;61;20833;-65
2024/03/28 01:57:17;0.00;0.00;0.62;0.00;0.00;0.62;4.07;3.33;;;23.70;24.00;;;;;;2270565;61;20378;-65
2024/03/28 01:59:44;0.00;0.00;0.62;0.00;0.00;0.62;4.57;3.83;;;23.70;24.00;;;;;;2271107;61;20351;-66
2024/03/28 02:02:12;0.00;0.00;0.62;0.00;0.00;0.62;3.67;3.10;;;23.70;24.00;;;;;;2270528;61;21201;-66
2024/03/28 02:04:38;0.00;0.00;0.62;0.00;0.00;0.62;4.47;3.27;;;23.70;23.90;;;;;;2270239;61;20391;-66
2024/03/28 02:07:05;0.00;0.00;0.62;0.00;0.00;0.62;5.40;3.83;;;23.70;23.90;;;;;;2271009;61;20842;-66
2024/03/28 02:09:32;0.00;0.00;0.62;0.00;0.00;0.62;4.20;3.33;;;23.70;23.90;;;;;;2270829;61;20967;-66
2024/03/28 02:11:59;0.00;0.00;0.62;0.00;0.00;0.62;5.13;3.50;;;23.70;23.90;;;;;;2270989;61;20358;-66
2024/03/28 02:14:25;0.00;0.00;0.62;0.00;0.00;0.62;3.50;3.20;;;23.70;23.90;;;;;;2271158;61;20666;-65
2024/03/28 02:16:51;0.00;0.00;0.62;0.00;0.00;0.62;3.97;2.70;;;23.70;23.90;;;;;;2270791;61;20383;-66
2024/03/28 02:19:17;0.00;0.00;0.62;0.00;0.00;0.62;3.13;2.60;;;23.70;23.90;;;;;;2271017;60;20347;-66
2024/03/28 02:21:46;0.00;0.00;0.62;0.00;0.00;0.62;3.67;3.20;;;23.60;23.80;;;;;;2271912;61;20365;-66
2024/03/28 02:24:13;0.00;0.00;0.62;0.00;0.00;0.62;3.40;2.60;;;23.70;23.90;;;;;;2271521;61;20386;-65
2024/03/28 02:26:39;0.00;0.00;0.62;0.00;0.00;0.62;4.90;3.00;;;23.70;23.90;;;;;;2271763;61;20371;-66
2024/03/28 02:29:05;0.00;0.00;0.62;0.00;0.00;0.62;3.03;2.27;;;23.60;23.80;;;;;;2271605;61;20442;-66
2024/03/28 02:31:32;0.00;0.00;0.62;0.00;0.00;0.62;2.80;2.40;;;23.60;23.80;;;;;;2271331;61;20370;-66
2024/03/28 02:33:58;0.00;0.00;0.62;0.00;0.00;0.62;2.87;2.10;;;23.60;23.80;;;;;;2271187;60;20650;-66
2024/03/28 02:36:24;0.00;0.00;0.62;0.00;0.00;0.62;2.90;2.27;;;23.60;23.80;;;;;;2271867;61;20437;-66
2024/03/28 02:38:52;0.00;0.00;0.62;0.00;0.00;0.62;2.67;2.27;;;23.60;23.80;;;;;;2271829;61;20363;-66
2024/03/28 02:41:20;0.00;0.00;0.62;0.00;0.00;0.62;2.70;1.90;;;23.60;23.80;;;;;;2271540;61;20370;-66
2024/03/28 02:43:47;0.00;0.00;0.62;0.00;0.00;0.62;2.80;1.90;;;23.60;23.80;;;;;;2271661;61;20461;-66
2024/03/28 02:46:13;0.00;0.00;0.62;0.00;0.00;0.62;3.80;2.23;;;23.60;23.80;;;;;;2268529;61;20447;-66
2024/03/28 02:48:39;0.00;0.00;0.62;0.00;0.00;0.62;2.57;2.23;;;23.60;23.80;;;;;;2267128;61;21077;-65
2024/03/28 02:51:06;0.00;0.00;0.62;0.00;0.00;0.62;3.30;2.27;;;23.60;23.80;;;;;;2269060;61;20378;-65
2024/03/28 02:53:32;0.00;0.00;0.62;0.00;0.00;0.62;3.00;2.27;;;23.60;23.80;;;;;;2267752;61;20358;-65
2024/03/28 02:55:59;0.00;0.00;0.62;0.00;0.00;0.62;2.20;1.70;;;23.60;23.80;;;;;;2270900;61;20359;-65
2024/03/28 02:58:26;0.00;0.00;0.62;0.00;0.00;0.62;2.50;1.80;;;23.60;23.80;;;;;;2271285;61;20801;-65
2024/03/28 03:00:52;0.00;0.00;0.62;0.00;0.00;0.62;2.83;2.00;;;23.60;23.80;;;;;;2271518;61;20351;-66
2024/03/28 03:03:18;0.00;0.00;0.62;0.00;0.00;0.62;2.87;1.77;;;23.60;23.80;;;;;;2270081;61;20347;-66
2024/03/28 03:05:48;0.00;0.00;0.62;0.00;0.00;0.62;2.97;1.90;;;23.60;23.80;;;;;;2271549;61;20355;-65
2024/03/28 03:08:14;0.00;0.00;0.62;0.00;0.00;0.62;2.90;2.10;;;23.50;23.70;;;;;;2271555;61;20371;-64
2024/03/28 03:10:41;0.00;0.00;0.62;0.00;0.00;0.62;2.80;1.70;;;23.60;23.80;;;;;;2271271;61;20375;-65
2024/03/28 03:13:08;0.00;0.00;0.62;0.00;0.00;0.62;2.40;1.67;;;23.60;23.80;;;;;;2271478;61;20416;-65
2024/03/28 03:15:34;0.00;0.00;0.62;0.00;0.00;0.62;3.43;2.03;;;23.50;23.70;;;;;;2271627;61;20441;-65
2024/03/28 03:18:00;0.00;0.00;0.62;0.00;0.00;0.62;2.43;2.13;;;23.50;23.70;;;;;;2271013;61;20364;-65
2024/03/28 03:20:26;0.00;0.00;0.62;0.00;0.00;0.62;2.33;1.60;;;23.50;23.70;;;;;;2271230;61;20435;-65
2024/03/28 03:23:04;0.00;0.00;0.62;0.00;0.00;0.62;2.10;1.50;;;23.50;23.70;;;;;;2271131;61;20801;-65
2024/03/28 03:25:41;0.00;0.00;0.62;0.00;0.00;0.62;2.60;2.00;;;23.50;23.70;;;;;;2270843;61;20475;-65
2024/03/28 03:36:23;0.00;0.00;0.62;0.00;0.00;0.62;2.23;1.73;;;23.50;23.70;;;;;;2267480;61;20441;-66
2024/03/28 03:38:49;0.00;0.00;0.62;0.00;0.00;0.62;2.33;1.70;;;23.50;23.70;;;;;;2267411;61;20368;-66
2024/03/28 03:41:15;0.00;0.00;0.62;0.00;0.00;0.62;3.03;2.07;;;23.50;23.70;;;;;;2267145;61;20360;-66
2024/03/28 03:43:43;0.00;0.00;0.62;0.00;0.00;0.62;2.60;1.70;;;23.50;23.70;;;;;;2267401;61;20837;-66
2024/03/28 03:46:09;0.00;0.00;0.62;0.00;0.00;0.62;1.90;1.47;;;23.50;23.70;;;;;;2267420;61;20356;-66
2024/03/28 03:48:35;0.00;0.00;0.62;0.00;0.00;0.62;1.90;1.20;;;23.40;23.70;;;;;;2267325;61;20353;-66
2024/03/28 03:51:01;0.00;0.00;0.62;0.00;0.00;0.62;2.67;1.63;;;23.50;23.70;;;;;;2267430;61;20386;-66
2024/03/28 03:53:27;0.00;0.00;0.62;0.00;0.00;0.62;2.90;1.73;;;23.40;23.70;;;;;;2267184;61;20877;-66
2024/03/28 03:55:56;0.00;0.00;0.62;0.00;0.00;0.62;2.67;1.50;;;23.40;23.60;;;;;;2267209;61;20447;-66
2024/03/28 03:58:22;0.00;0.00;0.62;0.00;0.00;0.62;2.47;1.73;;;23.40;23.60;;;;;;2267389;61;20364;-66
2024/03/28 04:00:49;0.00;0.00;0.62;0.00;0.00;0.62;2.10;1.30;;;23.40;23.60;;;;;;2267243;61;20435;-66
2024/03/28 04:03:17;0.00;0.00;0.62;0.00;0.00;0.62;2.37;1.50;;;23.40;23.60;;;;;;2266635;61;20352;-66
2024/03/28 04:05:43;0.00;0.00;0.62;0.00;0.00;0.62;2.30;1.40;;;23.40;23.70;;;;;;2267240;61;20388;-66
2024/03/28 04:08:09;0.00;0.00;0.62;0.00;0.00;0.62;1.87;1.20;;;23.40;23.70;;;;;;2267627;61;20380;-66
2024/03/28 04:10:36;0.00;0.00;0.62;0.00;0.00;0.62;2.10;1.37;;;23.40;23.70;;;;;;2266942;61;20380;-66
2024/03/28 04:13:02;0.00;0.00;0.62;0.00;0.00;0.62;1.80;1.33;;;23.40;23.70;;;;;;2267452;61;20356;-66
2024/03/28 04:15:28;0.00;0.00;0.62;0.00;0.00;0.62;1.70;1.23;;;23.40;23.70;;;;;;2267330;61;20348;-66
2024/03/28 04:17:56;0.00;0.00;0.62;0.00;0.00;0.62;1.93;1.43;;;23.40;23.70;;;;;;2266889;61;20368;-66
2024/03/28 04:20:22;0.00;0.00;0.62;0.00;0.00;0.62;2.20;1.50;;;23.40;23.70;;;;;;2267170;61;20352;-66
2024/03/28 04:22:48;0.00;0.00;0.62;0.00;0.00;0.62;2.43;1.43;;;23.40;23.70;;;;;;2267250;61;20787;-66
2024/03/28 04:25:15;0.00;0.00;0.62;0.00;0.00;0.62;1.93;1.17;;;23.40;23.70;;;;;;2267052;61;20363;-66
2024/03/28 04:27:41;0.00;0.00;0.62;0.00;0.00;0.62;1.80;1.10;;;23.40;23.70;;;;;;2267219;61;20897;-66
2024/03/28 04:30:08;0.00;0.00;0.62;0.00;0.00;0.62;2.10;1.10;;;23.40;23.70;;;;;;2267266;61;20438;-66
2024/03/28 04:32:34;0.00;0.00;0.62;0.00;0.00;0.62;5.90;1.30;;;23.40;23.70;;;;;;2266889;61;20348;-66
2024/03/28 04:35:02;0.00;0.00;0.62;0.00;0.00;0.62;1.50;0.90;;;23.40;23.70;;;;;;2267409;61;20363;-66
2024/03/28 04:37:28;0.00;0.00;0.62;0.00;0.00;0.62;2.20;1.40;;;23.30;23.70;;;;;;2267131;61;20803;-66
2024/03/28 04:39:54;0.00;0.00;0.62;0.00;0.00;0.62;1.83;1.20;;;23.30;23.70;;;;;;2267157;61;20882;-66
2024/03/28 04:42:20;0.00;0.00;0.62;0.00;0.00;0.62;1.93;1.00;;;23.30;23.70;;;;;;2266755;61;20739;-66
2024/03/28 04:44:46;0.00;0.00;0.62;0.00;0.00;0.62;1.90;1.20;;;23.30;23.70;;;;;;2266993;61;20348;-66
2024/03/28 04:47:14;0.00;0.00;0.62;0.00;0.00;0.62;2.47;1.33;;;23.30;23.70;;;;;;2266891;61;20368;-66
2024/03/28 04:49:42;0.00;0.00;0.62;0.00;0.00;0.62;2.60;1.63;;;23.30;23.70;;;;;;2267301;61;20367;-66
2024/03/28 04:52:10;0.00;0.00;0.62;0.00;0.00;0.62;3.83;1.70;;;23.30;23.70;;;;;;2266684;61;20357;-66
2024/03/28 04:54:36;0.00;0.00;0.62;0.00;0.00;0.62;2.00;1.57;;;23.30;23.70;;;;;;2266923;61;20826;-65
2024/03/28 04:57:03;0.00;0.00;0.62;0.00;0.00;0.62;2.43;1.57;;;23.30;23.70;;;;;;2267074;61;20415;-66
2024/03/28 04:59:29;0.00;0.00;0.62;0.00;0.00;0.62;3.67;2.47;;;23.30;23.70;;;;;;2267387;61;20392;-66
2024/03/28 05:01:55;0.00;0.00;0.62;0.00;0.00;0.62;3.50;2.70;;;23.30;23.80;;;;;;2266503;61;20448;-66
2024/03/28 05:04:22;0.00;0.00;0.62;0.00;0.00;0.62;4.33;2.83;;;23.30;23.80;;;;;;2267521;61;20356;-66
2024/03/28 05:06:48;0.00;0.00;0.62;0.00;0.00;0.62;4.83;2.93;;;23.30;23.80;;;;;;2266966;61;20377;-66
2024/03/28 05:09:16;0.00;0.00;0.62;0.00;0.00;0.62;3.53;2.53;;;23.30;23.80;;;;;;2266834;61;20970;-66
2024/03/28 05:11:42;0.00;0.00;0.62;0.00;0.00;0.62;3.80;2.70;;;23.30;23.80;;;;;;2267360;61;20399;-66
2024/03/28 05:14:09;0.00;0.00;0.62;0.00;0.00;0.62;4.13;3.13;;;23.30;23.80;;;;;;2266564;61;20866;-66
2024/03/28 05:16:35;0.00;0.00;0.62;0.00;0.00;0.62;3.53;2.87;;;23.20;23.70;;;;;;2273059;60;20809;-66
2024/03/28 05:19:01;0.00;0.00;0.62;0.00;0.00;0.62;4.70;3.73;;;23.30;23.80;;;;;;2266946;61;20375;-66
2024/03/28 05:21:27;0.00;0.00;0.62;0.00;0.00;0.62;5.03;3.60;;;23.20;23.70;;;;;;2267161;61;20869;-66
2024/03/28 05:23:54;0.00;0.00;0.62;0.00;0.00;0.62;5.00;3.67;;;23.20;23.80;;;;;;2266915;61;20439;-66
2024/03/28 05:26:21;0.00;0.00;0.62;0.00;0.00;0.62;5.53;3.70;;;23.20;23.70;;;;;;2266893;61;20479;-65
2024/03/28 05:28:48;0.00;0.00;0.62;0.00;0.00;0.62;4.53;3.43;;;23.20;23.80;;;;;;2271178;61;20767;-66
2024/03/28 05:31:17;0.00;0.00;0.62;0.00;0.00;0.62;4.53;3.37;;;23.20;23.80;;;;;;2270969;61;20483;-65
2024/03/28 05:33:43;0.00;0.00;0.62;0.00;0.00;0.62;4.97;3.70;;;23.20;23.80;;;;;;2271295;61;20351;-66
2024/03/28 05:36:10;0.00;0.00;0.62;0.00;0.00;0.62;5.27;3.70;;;23.20;23.80;;;;;;2271223;61;20434;-66
2024/03/28 05:38:37;0.00;0.00;0.62;0.00;0.00;0.62;5.67;3.80;;;23.20;23.80;;;;;;2270774;61;20363;-66
2024/03/28 05:41:04;0.00;0.00;0.62;0.00;0.00;0.62;4.93;3.83;;;23.20;23.80;;;;;;2271283;61;20924;-66
2024/03/28 05:43:32;0.00;0.00;0.62;0.00;0.00;0.62;5.80;4.00;;;23.20;23.80;;;;;;2271280;61;20362;-65
2024/03/28 05:45:58;0.00;0.00;0.62;0.00;0.00;0.62;5.37;3.40;;;23.20;23.80;;;;;;2270877;61;20357;-66
2024/03/28 05:48:24;0.00;0.00;0.62;0.00;0.00;0.62;5.57;3.47;;;23.20;23.80;;;;;;2271396;61;20414;-66
2024/03/28 05:50:51;0.00;0.00;0.62;0.00;0.00;0.62;6.60;4.97;;;23.20;23.80;;;;;;2271193;61;20463;-66
2024/03/28 05:53:18;0.00;0.00;0.62;0.00;0.00;0.62;5.50;3.80;;;23.10;23.80;;;;;;2270867;60;20379;-66
2024/03/28 05:55:44;0.00;0.00;0.62;0.00;0.00;0.62;5.93;3.77;;;23.10;23.80;;;;;;2271923;60;20361;-66
2024/03/28 05:58:11;0.00;0.00;0.62;0.00;0.00;0.62;4.90;3.50;;;23.20;23.80;;;;;;2272195;61;20367;-65
2024/03/28 06:00:38;0.00;0.00;0.62;0.00;0.00;0.62;4.50;3.33;;;23.20;23.90;;;;;;2272070;60;20351;-65
2024/03/28 06:03:04;0.00;0.00;0.62;0.00;0.00;0.62;4.27;3.37;;;23.10;23.80;;;;;;2272113;61;20436;-66
2024/03/28 06:05:32;0.00;0.00;0.62;0.00;0.00;0.62;4.23;3.20;;;23.10;23.80;;;;;;2272057;61;20355;-66
2024/03/28 06:07:58;0.00;0.00;0.62;0.00;0.00;0.62;4.83;2.87;;;23.10;23.80;;;;;;2271548;60;20873;-66
2024/03/28 06:10:24;0.00;0.00;0.62;0.00;0.00;0.62;4.47;3.30;;;23.10;23.80;;;;;;2271854;61;20381;-65
2024/03/28 06:12:50;0.00;0.00;0.62;0.00;0.00;0.62;4.43;3.13;;;23.10;23.80;;;;;;2271873;61;20762;-66
2024/03/28 06:15:16;0.00;0.00;0.62;0.00;0.00;0.62;3.90;2.97;;;23.10;23.80;;;;;;2271768;60;20382;-66
2024/03/28 06:17:44;0.00;0.00;0.62;0.00;0.00;0.62;3.90;3.20;;;23.10;23.80;;;;;;2271886;60;20386;-66
2024/03/28 06:20:11;0.00;0.00;0.62;0.00;0.00;0.62;4.43;3.23;;;23.10;23.80;;;;;;2271974;61;20362;-66
2024/03/28 06:22:38;0.00;0.00;0.62;0.00;0.00;0.62;4.77;3.30;;;23.10;23.80;;;;;;2271645;61;20386;-66
2024/03/28 06:25:05;0.00;0.00;0.62;0.00;0.00;0.62;3.33;2.87;;;23.10;23.90;;;;;;2271787;61;20357;-66
2024/03/28 06:27:31;0.00;0.00;0.62;0.00;0.00;0.62;4.07;3.00;;;23.10;23.80;;;;;;2272001;61;20375;-66
2024/03/28 06:29:58;0.00;0.00;0.62;0.00;0.00;0.62;4.00;2.80;;;23.10;23.90;;;;;;2271678;61;20421;-67
2024/03/28 06:32:29;0.00;0.00;0.62;0.00;0.00;0.62;4.47;3.13;;;23.10;23.90;;;;;;2271796;61;20355;-66
2024/03/28 06:34:58;0.00;0.00;0.62;0.00;0.00;0.62;5.43;3.30;;;23.10;23.90;;;;;;2271716;61;20351;-66
2024/03/28 06:37:25;0.00;0.00;0.62;0.00;0.00;0.62;4.13;2.70;;;23.10;23.90;;;;;;2271539;61;20398;-66
2024/03/28 06:39:51;0.00;0.00;0.62;0.00;0.00;0.62;4.50;2.50;;;23.10;23.80;;;;;;2271831;61;20863;-66
2024/03/28 06:42:17;0.00;0.00;0.62;0.00;0.00;0.62;4.80;3.03;;;23.10;23.80;;;;;;2270942;61;20370;-66
2024/03/28 06:44:44;0.00;0.00;0.62;0.00;0.00;0.62;4.03;2.83;;;23.10;23.90;;;;;;2271704;61;20412;-67
2024/03/28 06:47:11;0.00;0.00;0.62;0.00;0.00;0.62;3.60;2.73;;;23.10;23.90;;;;;;2271808;61;20374;-65
2024/03/28 06:49:37;0.00;0.00;0.62;0.00;0.00;0.62;4.73;2.67;;;23.10;23.90;;;;;;2271495;61;20386;-65
2024/03/28 06:52:05;0.00;0.00;0.62;0.00;0.00;0.62;3.10;2.20;;;23.10;23.90;;;;;;2271499;61;20857;-67
2024/03/28 06:54:32;0.00;0.00;0.62;0.00;0.00;0.62;3.20;2.37;;;23.10;23.80;;;;;;2271799;61;20352;-66
2024/03/28 06:56:58;0.00;0.00;0.62;0.00;0.00;0.62;4.43;2.80;;;23.10;23.80;;;;;;2271659;60;20372;-66
2024/03/28 06:59:24;0.00;0.00;0.62;0.00;0.00;0.62;3.47;2.40;;;23.10;24.40;;;;;;2271516;61;20912;-66
2024/03/28 07:01:50;0.00;0.00;0.62;0.00;0.00;0.62;3.40;2.63;;;23.10;23.80;;;;;;2271766;61;20796;-66
2024/03/28 07:04:16;0.00;0.00;0.62;0.00;0.00;0.62;4.03;2.67;;;23.10;23.90;;;;;;2271467;61;20861;-66
2024/03/28 07:06:43;0.00;0.00;0.62;0.00;0.00;0.62;4.47;2.90;;;23.10;23.90;;;;;;2271437;61;20524;-66
2024/03/28 07:09:11;0.00;0.00;0.62;0.00;0.00;0.62;3.20;2.43;;;23.10;23.90;;;;;;2271609;61;20351;-66
2024/03/28 07:11:37;0.00;0.00;0.62;0.00;0.00;0.62;5.13;2.73;;;23.10;23.90;;;;;;2271671;60;20802;-66
2024/03/28 07:14:03;0.00;0.00;0.62;0.00;0.00;0.62;4.20;2.53;;;23.10;23.80;;;;;;2271427;61;20359;-66
2024/03/28 07:16:30;0.00;0.00;0.62;0.00;0.00;0.62;3.50;2.53;;;23.10;23.80;;;;;;2271613;61;20462;-66
2024/03/28 07:18:57;0.00;0.00;0.62;0.00;0.00;0.62;3.60;2.90;;;23.10;23.80;;;;;;2271694;61;20367;-66
2024/03/28 07:21:23;0.00;0.00;0.62;0.00;0.00;0.62;3.30;2.37;;;23.10;23.90;;;;;;2271430;61;20375;-66
2024/03/28 07:23:50;0.00;0.00;0.62;0.00;0.00;0.62;2.67;2.10;;;23.10;23.90;;;;;;2271567;61;20351;-66
2024/03/28 07:26:18;0.00;0.00;0.62;0.00;0.00;0.62;3.60;2.43;;;23.10;23.90;;;;;;2271562;61;20348;-66
2024/03/28 07:28:44;0.00;0.00;0.62;0.00;0.00;0.62;3.40;2.27;;;23.10;23.90;;;;;;2271540;61;20496;-66
2024/03/28 07:31:10;0.00;0.00;0.62;0.00;0.00;0.62;5.90;2.70;;;23.10;23.80;;;;;;2271479;61;20414;-66
2024/03/28 07:33:36;0.00;0.00;0.62;0.00;0.00;0.62;4.03;2.87;;;23.10;23.90;;;;;;2271588;61;20391;-66
2024/03/28 07:36:04;0.00;0.00;0.62;0.00;0.00;0.62;4.17;2.80;;;23.10;23.90;;;;;;2271533;61;20343;-66
2024/03/28 07:38:30;0.00;0.00;0.62;0.00;0.00;0.62;3.47;2.60;;;23.10;23.90;;;;;;2271425;61;20365;-66
2024/03/28 07:40:56;0.00;0.00;0.62;0.00;0.00;0.62;4.10;3.00;;;23.10;23.90;;;;;;2271711;61;20348;-66
2024/03/28 07:43:24;0.00;0.00;0.62;0.00;0.00;0.62;5.70;3.70;;;23.10;23.90;;;;;;2271224;61;20355;-66
2024/03/28 07:45:50;0.00;0.00;0.62;0.00;0.00;0.62;3.70;3.10;;;23.10;23.90;;;;;;2271808;61;20356;-66
2024/03/28 07:48:16;0.00;0.00;0.62;0.00;0.00;0.62;5.10;4.00;;;23.10;23.90;;;;;;2271482;61;20788;-66
2024/03/28 07:50:42;0.00;0.00;0.62;0.00;0.00;0.62;5.20;3.90;;;23.10;23.90;;;;;;2271491;61;20375;-66
2024/03/28 07:53:08;0.00;0.00;0.62;0.00;0.00;0.62;5.50;4.27;;;23.10;23.90;;;;;;2271476;61;20347;-66
2024/03/28 07:55:34;0.00;0.00;0.62;0.00;0.00;0.62;6.50;4.30;;;23.10;23.90;;;;;;2271532;61;20344;-66
2024/03/28 07:58:01;0.00;0.00;0.62;0.00;0.00;0.62;5.97;4.53;;;23.10;23.90;;;;;;2271543;61;20371;-66
2024/03/28 08:00:28;0.00;0.00;0.62;0.00;0.00;0.62;6.10;4.47;;;23.10;23.90;;;;;;2271260;61;20402;-66
2024/03/28 08:02:54;0.00;0.00;0.62;0.00;0.00;0.62;5.33;4.80;;;23.10;23.90;;;;;;2271362;61;20352;-66
2024/03/28 08:05:21;0.00;0.00;0.62;0.00;0.00;0.62;5.83;4.77;;;23.10;23.90;;;;;;2271715;61;20355;-66
2024/03/28 08:07:47;0.00;0.00;0.62;0.00;0.00;0.62;5.73;5.13;;;23.10;23.90;;;;;;2270736;61;20892;-66
2024/03/28 08:10:13;0.00;0.00;0.62;0.00;0.00;0.62;6.90;5.47;;;23.10;23.90;;;;;;2271608;61;20367;-66
2024/03/28 08:12:39;0.00;0.00;0.62;0.00;0.00;0.62;7.00;5.27;;;23.10;23.90;;;;;;2271490;61;20861;-66
2024/03/28 08:15:06;0.00;0.00;0.62;0.00;0.00;0.62;5.50;4.77;;;23.10;24.00;;;;;;2271609;61;20359;-66
2024/03/28 08:17:33;0.00;0.00;0.62;0.00;0.00;0.62;5.57;4.87;;;23.10;24.00;;;;;;2271584;60;20423;-65
2024/03/28 08:20:00;0.00;0.00;0.62;0.00;0.00;0.62;8.37;5.93;;;23.10;24.00;;;;;;2271427;61;20361;-66
2024/03/28 08:22:26;0.00;0.00;0.62;0.00;0.00;0.62;7.27;6.30;;;23.10;24.00;;;;;;2271168;61;20393;-66
2024/03/28 08:24:53;0.00;0.00;0.62;0.00;0.00;0.62;6.13;5.13;;;23.10;24.00;;;;;;2271487;61;20401;-66
2024/03/28 08:27:19;0.00;0.00;0.62;0.00;0.00;0.62;5.23;4.53;;;23.10;24.00;;;;;;2271431;61;20411;-65
2024/03/28 08:29:45;0.00;0.00;0.62;0.00;0.00;0.62;6.07;5.17;;;23.10;24.00;;;;;;2271251;61;20446;-66
2024/03/28 08:32:12;0.00;0.00;0.62;0.00;0.00;0.62;5.87;4.87;;;23.10;24.00;;;;;;2271573;61;20875;-65
2024/03/28 08:34:39;0.00;0.00;0.62;0.00;0.00;0.62;6.13;5.13;;;23.10;24.10;;;;;;2271524;61;20362;-66
2024/03/28 08:37:05;0.00;0.00;0.62;0.00;0.00;0.62;6.50;4.97;;;23.10;24.10;;;;;;2271132;61;20440;-66
2024/03/28 08:39:31;0.00;0.00;0.62;0.00;0.00;0.62;5.90;4.73;;;23.10;24.10;;;;;;2271519;61;20347;-66
2024/03/28 08:41:58;0.00;0.00;0.62;0.00;0.00;0.62;6.53;5.30;;;23.10;24.20;;;;;;2271237;61;20347;-66
2024/03/28 08:44:24;0.00;0.00;0.62;0.00;0.00;0.62;5.47;4.50;;;23.10;24.20;;;;;;2271278;61;20408;-64
2024/03/28 08:46:50;0.00;0.00;0.62;0.00;0.00;0.62;7.13;5.20;;;23.10;24.20;;;;;;2271427;61;20892;-66
2024/03/28 08:49:16;0.00;0.00;0.62;0.00;0.00;0.62;5.83;4.60;;;23.10;24.20;;;;;;2271364;61;20352;-66
2024/03/28 08:51:44;0.00;0.00;0.62;0.00;0.00;0.62;5.03;4.30;;;23.10;24.20;;;;;;2270463;61;20375;-66
2024/03/28 08:54:12;0.00;0.00;0.62;0.00;0.00;0.62;5.60;4.50;;;23.20;24.30;;;;;;2271462;61;20876;-66
2024/03/28 08:56:39;0.00;0.00;0.62;0.00;0.00;0.62;5.57;4.73;;;23.10;24.20;;;;;;2271101;61;20374;-66
2024/03/28 08:59:06;0.00;0.00;0.62;0.00;0.00;0.62;5.67;4.73;;;23.10;24.20;;;;;;2271224;61;20383;-66
2024/03/28 09:01:32;0.00;0.00;0.62;0.00;0.00;0.62;5.60;4.17;;;23.20;24.30;;;;;;2271575;61;20428;-66
2024/03/28 09:03:58;0.00;0.00;0.62;0.00;0.00;0.62;5.93;4.80;;;23.20;24.30;;;;;;2271227;61;20358;-66
2024/03/28 09:06:24;0.00;0.00;0.62;0.00;0.00;0.62;5.07;4.53;;;23.20;24.30;;;;;;2271070;61;20454;-66
2024/03/28 09:08:52;0.00;0.00;0.62;0.00;0.00;0.62;4.70;3.80;;;23.20;24.30;;;;;;2271324;61;20348;-66
2024/03/28 09:11:18;0.00;0.00;0.62;0.00;0.00;0.62;4.23;3.83;;;23.10;24.30;;;;;;2271063;61;20517;-66
2024/03/28 09:13:44;0.00;0.00;0.62;0.00;0.00;0.62;4.90;4.40;;;23.20;24.40;;;;;;2270970;61;20355;-66
2024/03/28 09:16:10;0.00;0.00;0.62;0.00;0.00;0.62;4.63;3.80;;;23.20;24.30;;;;;;2271374;61;20412;-65
2024/03/28 09:18:36;0.00;0.00;0.62;0.00;0.00;0.62;5.77;4.17;;;23.20;24.40;;;;;;2271112;61;20910;-66
2024/03/28 09:21:08;0.00;0.00;0.62;0.00;0.00;0.62;5.10;4.50;;;23.20;24.40;;;;;;2271101;61;20352;-66
2024/03/28 09:23:34;0.00;0.00;0.62;0.00;0.00;0.62;4.83;4.00;;;23.20;24.40;;;;;;2271372;61;20355;-66
2024/03/28 09:26:02;0.00;0.00;0.62;0.00;0.00;0.62;4.60;4.07;;;23.20;24.40;;;;;;2271163;61;20771;-66
2024/03/28 09:28:28;0.00;0.00;0.62;0.00;0.00;0.62;3.60;3.07;;;23.20;24.50;;;;;;2271094;61;20368;-66
2024/03/28 09:30:54;0.00;0.00;0.62;0.00;0.00;0.62;3.40;3.10;;;23.20;24.50;;;;;;2270406;61;20506;-66
2024/03/28 09:33:20;0.00;0.00;0.62;0.00;0.00;0.62;4.50;3.13;;;23.20;24.50;;;;;;2271118;61;20356;-66
2024/03/28 09:35:46;0.00;0.00;0.62;0.00;0.00;0.62;3.80;3.17;;;23.20;24.50;;;;;;2271023;61;20800;-66
2024/03/28 09:38:13;0.00;0.00;0.62;0.00;0.00;0.62;4.27;3.47;;;23.20;24.50;;;;;;2270971;61;20486;-66
2024/03/28 09:40:52;0.00;0.00;0.62;0.00;0.00;0.62;3.50;3.03;;;23.20;24.60;;;;;;2271247;61;20340;-66
2024/03/28 09:43:20;0.00;0.00;0.62;0.00;0.00;0.62;3.80;3.20;;;23.20;24.60;;;;;;2270921;61;20387;-66
2024/03/28 09:45:46;0.00;0.00;0.62;0.00;0.00;0.62;3.60;3.07;;;23.20;24.60;;;;;;2271362;61;20355;-66
2024/03/28 09:48:15;0.00;0.00;0.62;0.00;0.00;0.62;3.20;2.73;;;23.20;24.60;;;;;;2271396;61;20378;-66